Tiempo atmosférico en la estación meteorológica de Piornal, Cáceres (1175 m.)



Fecha
DESCASC
Temp. máxima en grados centígrados (hora)
DESCASC
Temp. mínima en grados centígrados (hora)
DESCASC
Temp. media en grados centígrados
DESCASC
Racha de viento máxima en m/sg (hora)
DESCASC
Velocidad máxima media en intervalos de 10 minutos(hora)
DESCASC
Precipitaciones diarias en mm
DESCASC
Precipitaciones de 00:00 a 06:00 en mm
DESCASC
Precipitaciones de 06:00 a 12:00 en mm
DESCASC
Precipitaciones de 12:00 a 18:00 en mm
DESCASC
Precipitaciones de 18:00 a 24:00 en mm
DESCASC
20-09-2020 15.9 (17:50) 11.1 (23:59) 13.5 8.06 (00:40) 3.89 (17:20) 6.4 0.6 4.4 1.4 0
19-09-2020 13.1 (17:20) 10.9 (07:30) 12 11.67 (03:20) 5 (05:30) 56.8 41 12.8 2.4 0.6
18-09-2020 14.7 (13:30) 9.7 (08:40) 12.2 11.67 (22:40) 5.56 (19:50) 40.4 8.8 0 8 23.6
17-09-2020 17.4 (00:00) 13.3 (00:00) 15.3 12.22 (11:50) 5.28 (11:50) 5.8 0 0.2 3.4 2.2
16-09-2020 23.1 (15:40) 13.4 (00:00) 18.3 10.83 (20:20) 4.17 (20:20) 0 0 0 0 0
15-09-2020 22.3 (17:20) 12 (00:00) 17.1 8.06 (15:40) 3.33 (15:00) 0.2 0 0 0.2 0
14-09-2020 24.8 (15:10) 15.9 (00:00) 20.3 12.5 (00:50) 5.28 (00:40) 8.8 0 0 0 8.8
13-09-2020 26.4 (17:20) 16.8 (00:00) 21.6 11.39 (23:59) 5.28 (15:50) 0 0 0 0 0
12-09-2020 27.3 (15:40) 17.4 (00:00) 22.3 8.33 (05:40) 3.89 (13:30) 0 0 0 0 0
11-09-2020 28.5 (17:10) 16.3 (00:00) 22.4 8.06 (07:10) 3.89 (06:50) 0 0 0 0 0
10-09-2020 28.7 (17:00) 14.6 (00:00) 21.7 5.83 (18:50) 2.78 (17:10) 0 0 0 0 0
09-09-2020 24.9 (17:10) 13.6 (00:00) 19.3 7.5 (10:40) 3.61 (05:20) 0 0 0 0 0
08-09-2020 20.9 (17:10) 11.3 (00:00) 16.1 13.33 (10:40) 6.11 (09:50) 0 0 0 0 0
07-09-2020 27.2 (16:40) 15.7 (08:40) 21.5 6.94 (01:50) 2.78 (22:10) 0 0 0 0 0
06-09-2020 30.4 (16:40) 17.5 (00:00) 23.9 8.89 (08:00) 3.89 (07:40) 0 0 0 0 0
05-09-2020 28 (15:00) 17.5 (00:00) 22.8 6.11 (16:30) 2.78 (13:30) 0 0 0 0 0
04-09-2020 27.4 (16:30) 17.2 (00:00) 22.3 7.22 (15:20) 3.61 (04:30) 0 0 0 0 0
03-09-2020 28.2 (17:30) 16.1 (00:00) 22.2 6.39 (11:20) 3.33 (12:00) 0 0 0 0 0
02-09-2020 27 (17:20) 13.5 (00:00) 20.3 7.78 (13:10) 3.89 (12:20) 0 0 0 0 0
01-09-2020 26.2 (17:00) 13.7 (00:00) 20 6.39 (16:50) 3.06 (16:50) 0 0 0 0 0
31-08-2020 22.7 (17:10) 9.7 (00:00) 16.2 8.89 (07:20) 4.17 (10:20) 0 0 0 0 0
30-08-2020 21.2 (17:00) 7.7 (00:00) 14.5 10.83 (00:10) 4.72 (00:10) 0 0 0 0 0
29-08-2020 20.8 (16:10) 9.2 (00:00) 15 15.83 (02:40) 7.78 (02:40) 0 0 0 0 0
28-08-2020 27.8 (14:00) 14.3 (00:00) 21 15 (23:20) 6.67 (23:40) 0 0 0 0 0
27-08-2020 32.7 (16:50) 19.4 (00:00) 26.1 8.06 (22:10) 4.17 (23:10) 0 0 0 0 0
26-08-2020 31.9 (16:10) 18.1 (00:00) 25 6.11 (14:20) 2.78 (18:10) 0 0 0 0 0
25-08-2020 32.3 (17:20) 17.6 (00:00) 24.9 6.39 (16:30) 2.78 (16:20) 0 0 0 0 0
24-08-2020 29.9 (17:00) 16.5 (00:00) 23.2 6.67 (12:20) 3.61 (12:20) 0 0 0 0 0
23-08-2020 29.6 (16:40) 15.7 (00:00) 22.7 8.33 (09:10) 3.61 (07:40) 0 0 0 0 0

Gráficas

Temp. máximas Temp. mínimas Temp. medias Precipitaciones Rachas de viento máximas Velocidades máximas media en intervalos de 10 minutos

Datos horarios

Fecha y hora oficial Temperatura (ºC) Velocidad del viento (km/h) Dirección del viento Racha (km/h) Dirección de racha Precipitación (mm) Presión (hPa) Tendencia (hPa) Humedad (%)
2020-09-21 23:00:00 11.4 5 Noroeste 13 Noroeste 0 -- -- 78
2020-09-21 22:00:00 11.7 0 Calma 12 Oeste 0 -- -- 81
2020-09-21 21:00:00 13.4 5 Oeste 19 Sudoeste 0 -- -- 72
2020-09-21 20:00:00 15.1 8 Sudoeste 18 Sudoeste 0 -- -- 65
2020-09-21 19:00:00 16.5 10 Oeste 22 Oeste 0 -- -- 63
2020-09-21 18:00:00 18 9 Oeste 22 Sudoeste 0 -- -- 58
2020-09-21 17:00:00 18.5 9 Sudoeste 19 Sudoeste -- -- -- 58
2020-09-21 16:00:00 17.8 8 Sudoeste 18 Sudoeste 0 -- -- 64
2020-09-21 15:00:00 17.6 8 Sudoeste 18 Sudoeste 0 -- -- 64
2020-09-21 14:00:00 17.2 4 Sudoeste 15 Oeste 0 -- -- 74
2020-09-21 13:00:00 15.4 3 Noroeste 10 Sudoeste 0 -- -- 80
2020-09-21 12:00:00 15.5 3 Sur 8 Sudeste 0 -- -- 79
2020-09-21 11:00:00 13.5 0 Calma 7 Sudoeste 0 -- -- 79
2020-09-21 10:00:00 11.1 2 Sur 5 Sudeste 0 -- -- 92
2020-09-21 09:00:00 8.7 0 Calma 3 Sudeste 0 -- -- 96
2020-09-21 08:00:00 8.5 0 Calma 3 Sudeste 0 -- -- 93
2020-09-21 07:00:00 8.4 0 Calma 4 Sudeste 0 -- -- 91
2020-09-21 06:00:00 8.8 0 Calma 6 Norte 0 -- -- 88
2020-09-21 05:00:00 9.3 3 Norte 9 Norte 0 -- -- 89
2020-09-21 04:00:00 9.5 3 Noroeste 6 Noroeste 0 -- -- 91
2020-09-21 03:00:00 9.8 0 Calma 6 Norte 0 -- -- 91
2020-09-21 02:00:00 10.3 3 Norte 7 Norte 0 -- -- 92
2020-09-21 01:00:00 10.4 3 Norte 9 Noroeste 0 -- -- 91
2020-09-21 00:00:00 11.1 6 Noroeste 15 Norte 0 -- -- 89
2020-09-20 23:00:00 11.8 5 Noroeste 15 Oeste 0 -- -- 88
2020-09-20 22:00:00 12.6 4 Sudoeste 22 Sudoeste 0 -- -- 89
2020-09-20 21:00:00 13.1 6 Sudoeste 17 Sudoeste 0 -- -- 89
2020-09-20 20:00:00 14.5 10 Sudoeste 21 Sudoeste 0 -- -- 88
2020-09-20 19:00:00 15.1 9 Sudoeste 22 Oeste 0 -- -- 90
2020-09-20 18:00:00 15.9 11 Oeste 25 Oeste 0 -- -- 88
2020-09-20 17:00:00 15.5 13 Sudoeste 26 Sudoeste 0 -- -- 93
2020-09-20 16:00:00 13.8 8 Sudoeste 22 Sudoeste 0.6 -- -- 98
2020-09-20 15:00:00 14.3 9 Sudoeste 20 Sudoeste 0 -- -- 100
2020-09-20 14:00:00 12.9 6 Sudoeste 14 Sur 0.4 -- -- 100
2020-09-20 13:00:00 12.8 5 Sudoeste 13 Sudoeste 0.4 -- -- 100
2020-09-20 12:00:00 12.2 7 Sudoeste 19 Sudoeste 0.8 -- -- 100
2020-09-20 11:00:00 12 5 Sur 20 Sudoeste 0 -- -- 100
2020-09-20 10:00:00 11.7 8 Sudoeste 21 Sudoeste 0 -- -- 100
2020-09-20 09:00:00 11.7 8 Sudoeste 19 Sudoeste 1.6 -- -- 100
2020-09-20 08:00:00 11.9 5 Sur 15 Sur 1 -- -- 100
2020-09-20 07:00:00 11.8 5 Sur 17 Sur 1 -- -- 100
2020-09-20 06:00:00 11.8 6 Sur 20 Sudeste 0.4 -- -- 100
2020-09-20 05:00:00 11.7 7 Sudoeste 22 Sudoeste 0 -- -- 100
2020-09-20 04:00:00 11.8 8 Sudoeste 20 Sudoeste 0 -- -- 100
2020-09-20 03:00:00 11.9 7 Sudoeste 22 Sudoeste 0.2 -- -- 100
2020-09-20 02:00:00 12.1 12 Sudoeste 24 Sur 0 -- -- 100
2020-09-20 01:00:00 12.1 12 Sudoeste 29 Sudoeste 0 -- -- 100
2020-09-20 00:00:00 12.1 8 Sudoeste 29 Sudoeste 0 -- -- 100
2020-09-19 23:00:00 12.1 10 Sudoeste 24 Oeste 0 -- -- 99
2020-09-19 22:00:00 12.2 10 Sudoeste 21 Sudoeste 0.2 -- -- 98
2020-09-19 21:00:00 12.1 6 Sudoeste 16 Sudoeste 0 -- -- 98
2020-09-19 20:00:00 12.2 4 Sudoeste 10 Sur 0.2 -- -- 97
2020-09-19 19:00:00 12.4 3 Sudoeste 12 Oeste 0.2 -- -- 96
2020-09-19 18:00:00 12.8 6 Sudoeste 18 Oeste 0 -- -- 94
2020-09-19 17:00:00 12.9 8 Oeste 20 Sudoeste 0 -- -- 95
2020-09-19 16:00:00 12.8 9 Sudoeste 27 Oeste 0 -- -- 99
2020-09-19 15:00:00 12.1 12 Sudoeste 28 Sudoeste 0 -- -- 100
2020-09-19 14:00:00 11.9 13 Sudoeste 29 Sudoeste 0 -- -- 100
2020-09-19 13:00:00 11.6 12 Sudoeste 36 Sudoeste 2.4 -- -- 100
2020-09-19 12:00:00 11.3 10 Sudoeste 24 Sudoeste 1.2 -- -- 100
2020-09-19 11:00:00 11.3 12 Sudoeste 28 Sudoeste 3 -- -- 100
2020-09-19 10:00:00 11.2 13 Sudoeste 30 Sudoeste 0 -- -- 100
2020-09-19 09:00:00 11.1 13 Sudoeste 31 Sudoeste 0.2 -- -- 100
2020-09-19 08:00:00 11.1 12 Sudoeste 32 Oeste 3 -- -- 100
2020-09-19 07:00:00 11.2 14 Sudoeste 35 Sudoeste 5.4 -- -- 100
2020-09-19 06:00:00 11.3 13 Sudoeste 38 Sudoeste 4.8 -- -- 100
2020-09-19 05:00:00 11.5 13 Sudoeste 34 Sudoeste 4.2 -- -- 100
2020-09-19 04:00:00 11.5 11 Sur 42 Sur 6.6 -- -- 100
2020-09-19 03:00:00 11.4 14 Sur 38 Sudeste 10 -- -- 100
2020-09-19 02:00:00 11.5 13 Sur 35 Sur 6.8 -- -- 100
2020-09-19 01:00:00 11.6 17 Sudeste 41 Sudeste 8.6 -- -- 100
2020-09-19 00:00:00 11.5 13 Sudeste 34 Sur 1.4 -- -- 100
2020-09-18 23:00:00 11.5 11 Sur 42 Sudeste 5 -- -- 100
2020-09-18 22:00:00 10.7 9 Este 35 Este 6.2 -- -- 100
2020-09-18 21:00:00 10.6 12 Este 38 Este 6.8 -- -- 100
2020-09-18 20:00:00 10.5 17 Este 39 Este 3 -- -- 100
2020-09-18 19:00:00 11.5 17 Este 40 Este 1.2 -- -- 100
2020-09-18 18:00:00 12 17 Este 41 Sudeste 0 -- -- 100
2020-09-18 17:00:00 12.3 14 Este 30 Este 0.2 -- -- 98
2020-09-18 16:00:00 12.1 9 Sudeste 28 Sudeste 6.2 -- -- 98
2020-09-18 15:00:00 12.6 12 Este 28 Este 1.6 -- -- 92
2020-09-18 14:00:00 14.4 14 Este 33 Este 0 -- -- 81
2020-09-18 13:00:00 13.4 14 Este 31 Este 0 -- -- 94
2020-09-18 12:00:00 11.6 14 Este 31 Este 0 -- -- 98
2020-09-18 11:00:00 11 12 Este 30 Sudeste 0 -- -- 99
2020-09-18 10:00:00 10.3 9 Este 24 Este 0 -- -- 98
2020-09-18 09:00:00 9.7 4 Sudeste 12 Sudeste 0 -- -- 97
2020-09-18 08:00:00 10.1 6 Sudeste 18 Este 0 -- -- 97
2020-09-18 07:00:00 10.8 3 Sudeste 10 Sudoeste 0 -- -- 97
2020-09-18 06:00:00 11.1 4 Sudeste 30 Sudeste 3 -- -- 98
2020-09-18 05:00:00 11.6 5 Sudeste 19 Este 1.6 -- -- 98
2020-09-18 04:00:00 11.7 10 Este 37 Este 3.6 -- -- 98
2020-09-18 03:00:00 13.3 12 Este 32 Este 0.2 -- -- 99
2020-09-18 02:00:00 13.4 9 Sudeste 22 Este 0 -- -- 98
2020-09-18 01:00:00 13.5 9 Sudeste 29 Sudeste 0.4 -- -- 98
2020-09-18 00:00:00 13.7 5 Sudeste 25 Este 2 -- -- 97
2020-09-17 23:00:00 14.4 8 Sudeste 26 Sudeste 0 -- -- 94
2020-09-17 22:00:00 15.3 10 Sudeste 35 Sur 0 -- -- 89
2020-09-17 21:00:00 14.8 12 Este 29 Sudeste 0 -- -- 93
2020-09-17 20:00:00 15.1 16 Este 39 Este 0.2 -- -- 97
2020-09-17 19:00:00 16.3 15 Este 36 Sudeste 0 -- -- 91
2020-09-17 18:00:00 16.2 16 Este 31 Este 0 -- -- 96
2020-09-17 17:00:00 15.3 15 Este 38 Este 1 -- -- 96
2020-09-17 16:00:00 14.7 13 Este 33 Este 1 -- -- 97
2020-09-17 15:00:00 14.2 10 Este 33 Sudeste 0.4 -- -- 98
2020-09-17 14:00:00 14.5 12 Este 36 Este 0.8 -- -- 95
2020-09-17 13:00:00 15.5 13 Este 43 Este 0.2 -- -- 85
2020-09-17 12:00:00 15.2 18 Este 44 Este 0 -- -- 86
2020-09-17 11:00:00 14.1 15 Este 34 Sudeste 0 -- -- 90
2020-09-17 10:00:00 13.7 13 Este 30 Este 0 -- -- 90
2020-09-17 09:00:00 13.3 13 Este 33 Este 0 -- -- 92
2020-09-17 08:00:00 13.4 11 Este 23 Este 0 -- -- 90
2020-09-17 07:00:00 13.4 11 Este 34 Este 0.2 -- -- 93
2020-09-17 06:00:00 14.8 11 Este 25 Este 0 -- -- 79
2020-09-17 05:00:00 15.3 10 Este 23 Este 0 -- -- 75
2020-09-17 04:00:00 15.9 11 Este 24 Este 0 -- -- 70
2020-09-17 03:00:00 16 8 Este 22 Sudeste 0 -- -- 70
2020-09-17 02:00:00 16.1 6 Sudeste 16 Este 0 -- -- 70
2020-09-17 01:00:00 15.9 3 Sudeste 10 Sur 0 -- -- 71
2020-09-17 00:00:00 17.4 4 Sudeste 15 Sudeste 0 -- -- 67
2020-09-16 23:00:00 17.8 4 Este 9 Este 0 -- -- 63
2020-09-16 22:00:00 18.5 3 Este 9 Este 0 -- -- 54
2020-09-16 21:00:00 19.4 4 Sudeste 39 Este 0 -- -- 51
2020-09-16 20:00:00 19.9 5 Este 16 Sudeste 0 -- -- 48
2020-09-16 19:00:00 20.3 5 Este 18 Este 0 -- -- 47
2020-09-16 18:00:00 21.3 7 Este 20 Nordeste 0 -- -- 43
2020-09-16 17:00:00 22.7 9 Este 22 Sudeste 0 -- -- 41
2020-09-16 16:00:00 22.2 9 Este 28 Este 0 -- -- 48
2020-09-16 15:00:00 21.9 14 Este 30 Sudeste 0 -- -- 50
2020-09-16 14:00:00 21.5 11 Este 25 Este 0 -- -- 52
2020-09-16 13:00:00 20.8 11 Este 27 Este 0 -- -- 57
2020-09-16 12:00:00 19.8 10 Este 23 Este 0 -- -- 58
2020-09-16 11:00:00 17.8 7 Este 17 Este 0 -- -- 62
2020-09-16 10:00:00 16.9 7 Este 17 Este 0 -- -- 67
2020-09-16 09:00:00 14.3 8 Este 13 Nordeste 0 -- -- 75
2020-09-16 08:00:00 13.6 6 Este 11 Este 0 -- -- 75
2020-09-16 07:00:00 13.8 5 Este 13 Nordeste 0 -- -- 72
2020-09-16 06:00:00 14.2 6 Este 13 Este 0 -- -- 72
2020-09-16 05:00:00 13.8 3 Sudeste 12 Nordeste 0 -- -- 70
2020-09-16 04:00:00 13.6 2 Sudeste 5 Sudoeste 0 -- -- 69
2020-09-16 03:00:00 13.5 3 Sudeste 4 Sudeste 0 -- -- 71
2020-09-16 02:00:00 14.4 3 Sudeste 5 Sudeste 0 -- -- 65
2020-09-16 01:00:00 14.9 3 Este 5 Sudeste 0 -- -- 65
2020-09-16 00:00:00 14.2 3 Este 4 Sur 0 -- -- 69
2020-09-15 23:00:00 15.4 3 Sudeste 8 Sur 0 -- -- 65
2020-09-15 22:00:00 16.1 3 Sudeste 7 Sudeste 0 -- -- 64
2020-09-15 21:00:00 16.9 3 Sudeste 10 Sudeste 0 -- -- 62
2020-09-15 20:00:00 19 3 Sudeste 14 Sudeste 0 -- -- 58
2020-09-15 19:00:00 20.5 5 Sudeste 18 Sudeste 0 -- -- 51
2020-09-15 18:00:00 21.1 4 Sur 19 Sur 0 -- -- 54
2020-09-15 17:00:00 22.1 7 Sudeste 21 Sudoeste 0 -- -- 49
2020-09-15 16:00:00 21.6 6 Sudeste 29 Este 0 -- -- 49
2020-09-15 15:00:00 20.6 12 Este 27 Sudeste 0 -- -- 55
2020-09-15 14:00:00 19.4 9 Este 25 Este 0 -- -- 69
2020-09-15 13:00:00 18.8 7 Este 19 Este 0.2 -- -- 73
2020-09-15 12:00:00 18.3 8 Este 19 Este 0 -- -- 75
2020-09-15 11:00:00 17.7 5 Este 13 Este 0 -- -- 78
2020-09-15 10:00:00 14.4 3 Sudeste 6 Sudeste 0 -- -- 85
2020-09-15 09:00:00 13.2 3 Sudeste 5 Sudeste 0 -- -- 86
2020-09-15 08:00:00 12.2 3 Sudeste 4 Este 0 -- -- 88
2020-09-15 07:00:00 12.4 3 Este 4 Sudeste 0 -- -- 87
2020-09-15 06:00:00 13 0 Calma 5 Sudoeste 0 -- -- 85
2020-09-15 05:00:00 13.6 0 Calma 3 Sudeste 0 -- -- 85
2020-09-15 04:00:00 14 0 Calma 4 Sur 0 -- -- 87
2020-09-15 03:00:00 14.5 2 Sudoeste 4 Oeste 0 -- -- 87
2020-09-15 02:00:00 14.8 2 Sudoeste 4 Noroeste 0 -- -- 86
2020-09-15 01:00:00 15.1 3 Oeste 6 Oeste 0 -- -- 85
2020-09-15 00:00:00 15.9 3 Oeste 8 Oeste 0 -- -- 85
2020-09-14 23:00:00 16.4 0 Calma 11 Sudoeste 2.4 -- -- 84
2020-09-14 22:00:00 17 6 Oeste 10 Oeste 0 -- -- 80
2020-09-14 21:00:00 16.8 2 Oeste 24 Sur 6.2 -- -- 84
2020-09-14 20:00:00 22.2 4 Sudoeste 21 Sudoeste 0.2 -- -- 54
2020-09-14 19:00:00 22.1 5 Sur 14 Sur 0 -- -- 48
2020-09-14 18:00:00 22.5 4 Sudeste 18 Este 0 -- -- 46
2020-09-14 17:00:00 24.5 8 Sudeste 24 Este 0 -- -- 41
2020-09-14 16:00:00 23.2 9 Sudeste 30 Sudeste 0 -- -- 43
2020-09-14 15:00:00 24.5 10 Este 31 Nordeste 0 -- -- 42
2020-09-14 14:00:00 23.2 12 Este 33 Este 0 -- -- 44
2020-09-14 13:00:00 20.2 12 Este 28 Este 0 -- -- 55
2020-09-14 12:00:00 18.8 12 Este 32 Este 0 -- -- 59
2020-09-14 11:00:00 18.3 15 Este 37 Este 0 -- -- 59
2020-09-14 10:00:00 16.2 17 Este 32 Nordeste 0 -- -- 65
2020-09-14 09:00:00 16 14 Este 29 Este 0 -- -- 64
2020-09-14 08:00:00 16.1 15 Este 30 Este 0 -- -- 61
2020-09-14 07:00:00 16.7 12 Este 25 Este 0 -- -- 59
2020-09-14 06:00:00 16.8 13 Este 23 Este 0 -- -- 58
2020-09-14 05:00:00 17.3 11 Este 20 Este 0 -- -- 53
2020-09-14 04:00:00 18.1 10 Este 21 Este 0 -- -- 48
2020-09-14 03:00:00 18.9 11 Este 29 Este 0 -- -- 45
2020-09-14 02:00:00 19.9 14 Este 32 Este 0 -- -- 42
2020-09-14 01:00:00 21 13 Este 45 Este 0 -- -- 39
2020-09-14 00:00:00 22.1 12 Este 41 Este 0 -- -- 36
2020-09-13 23:00:00 22.1 9 Este 24 Sudeste 0 -- -- 37
2020-09-13 22:00:00 21.9 8 Este 24 Nordeste 0 -- -- 41
2020-09-13 21:00:00 22.1 6 Este 24 Este 0 -- -- 41
2020-09-13 20:00:00 23.1 8 Este 27 Este 0 -- -- 39
2020-09-13 19:00:00 24.4 10 Este 33 Este 0 -- -- 37
2020-09-13 18:00:00 26.3 12 Este 36 Nordeste 0 -- -- 34
2020-09-13 17:00:00 26.1 15 Este 33 Este 0 -- -- 37
2020-09-13 16:00:00 24.4 19 Este 39 Este 0 -- -- 39
2020-09-13 15:00:00 24.7 18 Este 38 Este 0 -- -- 39
2020-09-13 14:00:00 22.7 17 Este 31 Este 0 -- -- 43
2020-09-13 13:00:00 22.2 14 Este 30 Este 0 -- -- 47
2020-09-13 12:00:00 21.5 14 Este 30 Este 0 -- -- 49
2020-09-13 11:00:00 20.5 13 Este 32 Este 0 -- -- 50
2020-09-13 10:00:00 18.7 15 Este 32 Este 0 -- -- 55
2020-09-13 09:00:00 17.3 15 Este 33 Este 0 -- -- 57
2020-09-13 08:00:00 16.8 14 Este 35 Este 0 -- -- 54
2020-09-13 07:00:00 17.8 16 Este 35 Este 0 -- -- 47
2020-09-13 06:00:00 18.7 18 Este 37 Este 0 -- -- 41
2020-09-13 05:00:00 20.4 12 Este 31 Este 0 -- -- 34
2020-09-13 04:00:00 21.2 12 Este 27 Este 0 -- -- 32
2020-09-13 03:00:00 20.4 8 Este 19 Este 0 -- -- 34
2020-09-13 02:00:00 20 9 Este 16 Este 0 -- -- 37
2020-09-13 01:00:00 19.6 8 Este 15 Este 0 -- -- 39
2020-09-13 00:00:00 20.2 8 Este 16 Este 0 -- -- 38
2020-09-12 23:00:00 20.9 7 Nordeste 10 Nordeste 0 -- -- 37
2020-09-12 22:00:00 20.5 5 Este 9 Este 0 -- -- 38
2020-09-12 21:00:00 21.8 6 Nordeste 10 Nordeste 0 -- -- 36
2020-09-12 20:00:00 23.3 5 Este 14 Este 0 -- -- 35
2020-09-12 19:00:00 24.7 6 Este 16 Este 0 -- -- 32
2020-09-12 18:00:00 25.1 9 Este 19 Nordeste 0 -- -- 32
2020-09-12 17:00:00 26.3 9 Este 20 Este 0 -- -- 30
2020-09-12 16:00:00 27.1 9 Este 24 Norte 0 -- -- 28
2020-09-12 15:00:00 27.1 9 Este 26 Nordeste 0 -- -- 29
2020-09-12 14:00:00 26.4 10 Este 26 Este 0 -- -- 30
2020-09-12 13:00:00 25.2 13 Este 29 Este 0 -- -- 32
2020-09-12 12:00:00 24.2 12 Este 24 Este 0 -- -- 33
2020-09-12 11:00:00 22.6 9 Este 23 Este 0 -- -- 37
2020-09-12 10:00:00 20.8 9 Este 20 Este 0 -- -- 40
2020-09-12 09:00:00 18.7 10 Este 18 Este 0 -- -- 43
2020-09-12 08:00:00 18.2 10 Este 21 Este 0 -- -- 41
2020-09-12 07:00:00 18.3 10 Este 23 Este 0 -- -- 41
2020-09-12 06:00:00 18.1 10 Este 30 Este 0 -- -- 42
2020-09-12 05:00:00 17.9 8 Este 14 Este 0 -- -- 42
2020-09-12 04:00:00 17.6 6 Este 11 Este 0 -- -- 43
2020-09-12 03:00:00 17.9 6 Este 13 Este 0 -- -- 42
2020-09-12 02:00:00 18.2 6 Este 11 Este 0 -- -- 41
2020-09-12 01:00:00 18.5 4 Nordeste 8 Nordeste 0 -- -- 40
2020-09-12 00:00:00 18.6 4 Norte 14 Norte 0 -- -- 39
2020-09-11 23:00:00 18.8 4 Norte 9 Norte 0 -- -- 39
2020-09-11 22:00:00 19.2 2 Sudoeste 4 Sudoeste 0 -- -- 37
2020-09-11 21:00:00 20.7 0 Calma 5 Sudoeste 0 -- -- 37
2020-09-11 20:00:00 22.8 3 Sur 6 Sudoeste 0 -- -- 35
2020-09-11 19:00:00 26.3 5 Oeste 19 Noroeste 0 -- -- 26
2020-09-11 18:00:00 26.4 4 Oeste 20 Oeste 0 -- -- 26
2020-09-11 17:00:00 28 6 Oeste 21 Sudoeste 0 -- -- 25
2020-09-11 16:00:00 27.5 5 Sudoeste 20 Este 0 -- -- 25
2020-09-11 15:00:00 26.9 5 Sudeste 22 Este 0 -- -- 28
2020-09-11 14:00:00 26.3 8 Este 21 Nordeste 0 -- -- 31
2020-09-11 13:00:00 24.5 10 Este 21 Este 0 -- -- 33
2020-09-11 12:00:00 23.6 9 Este 20 Nordeste 0 -- -- 34
2020-09-11 11:00:00 21.7 8 Este 24 Este 0 -- -- 39
2020-09-11 10:00:00 18.9 10 Este 24 Este 0 -- -- 44
2020-09-11 09:00:00 17.1 10 Este 28 Este 0 -- -- 48
2020-09-11 08:00:00 16.8 11 Este 29 Este 0 -- -- 46
2020-09-11 07:00:00 17.2 14 Este 28 Este 0 -- -- 45
2020-09-11 06:00:00 16.3 9 Este 21 Este 0 -- -- 47
2020-09-11 05:00:00 17.4 7 Este 14 Este 0 -- -- 44
2020-09-11 04:00:00 17.5 8 Este 15 Este 0 -- -- 44
2020-09-11 03:00:00 17.3 6 Este 14 Este 0 -- -- 44
2020-09-11 02:00:00 17.4 8 Este 15 Este 0 -- -- 43
2020-09-11 01:00:00 16.8 5 Este 9 Este 0 -- -- 44
2020-09-11 00:00:00 18 4 Este 8 Este 0 -- -- 43
2020-09-10 23:00:00 19.2 5 Nordeste 9 Nordeste 0 -- -- 38
2020-09-10 22:00:00 19.6 5 Nordeste 11 Nordeste 0 -- -- 36
2020-09-10 21:00:00 20.4 4 Nordeste 9 Norte 0 -- -- 39
2020-09-10 20:00:00 23.4 8 Noroeste 18 Oeste 0 -- -- 29
2020-09-10 19:00:00 25.7 10 Noroeste 21 Oeste 0 -- -- 25
2020-09-10 18:00:00 27.5 7 Noroeste 21 Oeste 0 -- -- 23
2020-09-10 17:00:00 28.7 9 Oeste 18 Oeste 0 -- -- 24
2020-09-10 16:00:00 27.7 6 Oeste 15 Sur 0 -- -- 26
2020-09-10 15:00:00 26.2 6 Sur 17 Sudoeste 0 -- -- 30
2020-09-10 14:00:00 26.2 4 Sudeste 14 Este 0 -- -- 34
2020-09-10 13:00:00 26.3 5 Noroeste 12 Nordeste 0 -- -- 33
2020-09-10 12:00:00 25.6 6 Oeste 11 Oeste 0 -- -- 31
2020-09-10 11:00:00 22.3 4 Norte 9 Norte 0 -- -- 38
2020-09-10 10:00:00 18.8 3 Norte 12 Este 0 -- -- 43
2020-09-10 09:00:00 16.3 6 Este 18 Este 0 -- -- 53
2020-09-10 08:00:00 15.3 7 Este 17 Este 0 -- -- 50
2020-09-10 07:00:00 15.3 6 Este 15 Este 0 -- -- 42
2020-09-10 06:00:00 15.1 0 Calma 4 Norte 0 -- -- 41
2020-09-10 05:00:00 15.9 3 Nordeste 10 Nordeste 0 -- -- 40
2020-09-10 04:00:00 16.6 6 Nordeste 13 Norte 0 -- -- 40
2020-09-10 03:00:00 15.3 5 Nordeste 11 Norte 0 -- -- 43
2020-09-10 02:00:00 15.3 4 Nordeste 9 Norte 0 -- -- 42
2020-09-10 01:00:00 16.4 5 Nordeste 10 Norte 0 -- -- 39
2020-09-10 00:00:00 15.8 5 Nordeste 8 Nordeste 0 -- -- 47
2020-09-09 23:00:00 16.9 3 Noroeste 5 Noroeste 0 -- -- 44
2020-09-09 22:00:00 17.8 4 Oeste 12 Oeste 0 -- -- 41
2020-09-09 21:00:00 18.9 3 Sudoeste 8 Sur 0 -- -- 41
2020-09-09 20:00:00 21.3 3 Sur 12 Sudoeste 0 -- -- 37
2020-09-09 19:00:00 23.1 5 Sudoeste 14 Oeste 0 -- -- 33
2020-09-09 18:00:00 24.8 8 Sudoeste 23 Sudoeste 0 -- -- 31
2020-09-09 17:00:00 24.8 8 Sudoeste 22 Este 0 -- -- 30
2020-09-09 16:00:00 23.5 8 Nordeste 22 Este -- -- -- 32
2020-09-09 15:00:00 23.2 8 Este 24 Este 0 -- -- 34
2020-09-09 14:00:00 22.2 13 Este 27 Este 0 -- -- 37
2020-09-09 13:00:00 21.9 9 Este 22 Este 0 -- -- 35
2020-09-09 12:00:00 20.1 9 Este 24 Este 0 -- -- 43
2020-09-09 11:00:00 17.7 12 Este 27 Nordeste 0 -- -- 49
2020-09-09 10:00:00 17.1 8 Este 20 Este 0 -- -- 50
2020-09-09 09:00:00 14.8 9 Este 18 Este 0 -- -- 54
2020-09-09 08:00:00 13.7 9 Este 16 Este 0 -- -- 55
2020-09-09 07:00:00 14 9 Este 19 Nordeste 0 -- -- 53
2020-09-09 06:00:00 14.1 9 Este 25 Este 0 -- -- 52
2020-09-09 05:00:00 14.8 12 Este 24 Nordeste 0 -- -- 49
2020-09-09 04:00:00 15 10 Este 22 Este 0 -- -- 48
2020-09-09 03:00:00 14.7 9 Este 19 Este 0 -- -- 48
2020-09-09 02:00:00 15 8 Este 17 Este 0 -- -- 46
2020-09-09 01:00:00 15.2 8 Este 18 Nordeste 0 -- -- 43
2020-09-09 00:00:00 15.1 8 Este 19 Nordeste 0 -- -- 42
2020-09-08 23:00:00 15.4 7 Este 19 Nordeste 0 -- -- 44
2020-09-08 22:00:00 15.5 8 Este 16 Este 0 -- -- 46
2020-09-08 21:00:00 16.2 8 Este 20 Este 0 -- -- 46
2020-09-08 20:00:00 18 9 Este 23 Este 0 -- -- 43
2020-09-08 19:00:00 19.4 11 Este 25 Nordeste 0 -- -- 45
2020-09-08 18:00:00 20.5 8 Este 24 Este 0 -- -- 45
2020-09-08 17:00:00 20.7 10 Este 29 Este 0 -- -- 45
2020-09-08 16:00:00 20.4 11 Este 30 Este 0 -- -- 47
2020-09-08 15:00:00 19.1 14 Este 34 Este 0 -- -- 51
2020-09-08 14:00:00 18.4 15 Este 31 Este 0 -- -- 53
2020-09-08 13:00:00 17.2 17 Este 36 Este 0 -- -- 54
2020-09-08 12:00:00 15.6 17 Este 44 Este 0 -- -- 56
2020-09-08 11:00:00 13.6 22 Este 48 Este 0 -- -- 63
2020-09-08 10:00:00 12.3 21 Este 46 Este 0 -- -- 60
2020-09-08 09:00:00 11.7 17 Este 40 Este 0 -- -- 55
2020-09-08 08:00:00 11.4 17 Este 39 Este 0 -- -- 56
2020-09-08 07:00:00 11.9 17 Este 41 Este 0 -- -- 48
2020-09-08 06:00:00 12.8 18 Este 44 Nordeste 0 -- -- 43
2020-09-08 05:00:00 13.3 17 Este 36 Este 0 -- -- 45
2020-09-08 04:00:00 14.1 15 Este 35 Este 0 -- -- 44
2020-09-08 03:00:00 15.2 13 Este 34 Este 0 -- -- 40
2020-09-08 02:00:00 16.6 13 Este 27 Nordeste 0 -- -- 34
2020-09-08 01:00:00 15.7 10 Este 20 Sudeste 0 -- -- 39
2020-09-08 00:00:00 16 8 Este 14 Este 0 -- -- 37
2020-09-07 23:00:00 17 8 Este 25 Este 0 -- -- 36
2020-09-07 22:00:00 17.6 9 Este 22 Este 0 -- -- 38
2020-09-07 21:00:00 18.9 4 Este 10 Este 0 -- -- 44
2020-09-07 20:00:00 21.2 4 Este 10 Este 0 -- -- 39
2020-09-07 19:00:00 22.9 6 Este 14 Nordeste 0 -- -- 35
2020-09-07 18:00:00 25.9 6 Norte 17 Oeste 0 -- -- 26
2020-09-07 17:00:00 26.9 6 Sudoeste 18 Oeste 0 -- -- 28
2020-09-07 16:00:00 25.9 7 Norte 15 Oeste 0 -- -- 32
2020-09-07 15:00:00 25.1 5 Este 21 Sur 0 -- -- 34
2020-09-07 14:00:00 26.8 7 Oeste 17 Oeste 0 -- -- 29
2020-09-07 13:00:00 24.9 6 Oeste 13 Oeste 0 -- -- 32
2020-09-07 12:00:00 22.2 5 Sudoeste 14 Sudoeste 0 -- -- 41
2020-09-07 11:00:00 21.1 3 Sur 11 Sur 0 -- -- 45
2020-09-07 10:00:00 18.7 3 Este 10 Este 0 -- -- 52
2020-09-07 09:00:00 15.9 3 Sudeste 12 Este 0 -- -- 59
2020-09-07 08:00:00 16.1 3 Sur 11 Este 0 -- -- 55
2020-09-07 07:00:00 16.5 6 Este 12 Nordeste 0 -- -- 53
2020-09-07 06:00:00 17.1 2 Este 18 Este 0 -- -- 52
2020-09-07 05:00:00 17.1 5 Nordeste 13 Norte 0 -- -- 53
2020-09-07 04:00:00 17.8 5 Nordeste 12 Nordeste 0 -- -- 47
2020-09-07 03:00:00 18.6 4 Nordeste 19 Norte 0 -- -- 43
2020-09-07 02:00:00 19.4 8 Norte 25 Noroeste 0 -- -- 44
2020-09-07 01:00:00 19.4 3 Nordeste 15 Nordeste 0 -- -- 48
2020-09-07 00:00:00 20.6 8 Nordeste 21 Nordeste 0 -- -- 45
2020-09-06 23:00:00 21 9 Norte 23 Norte 0 -- -- 44
2020-09-06 22:00:00 20.9 8 Norte 17 Nordeste 0 -- -- 42
2020-09-06 21:00:00 22.2 4 Norte 19 Norte 0 -- -- 40
2020-09-06 20:00:00 24.6 7 Norte 22 Noroeste 0 -- -- 35
2020-09-06 19:00:00 27 9 Oeste 23 Sudoeste 0 -- -- 31
2020-09-06 18:00:00 29 9 Oeste 22 Oeste 0 -- -- 26
2020-09-06 17:00:00 29.8 6 Sudoeste 27 Oeste 0 -- -- 25
2020-09-06 16:00:00 29.3 6 Sudoeste 24 Sudoeste 0 -- -- 27
2020-09-06 15:00:00 29.1 7 Sur 20 Sur 0 -- -- 29
2020-09-06 14:00:00 28.1 6 Noroeste 17 Este 0 -- -- 33
2020-09-06 13:00:00 26.5 7 Este 17 Nordeste 0 -- -- 33
2020-09-06 12:00:00 25.1 6 Este 19 Este 0 -- -- 36
2020-09-06 11:00:00 22.4 8 Este 23 Nordeste 0 -- -- 45
2020-09-06 10:00:00 19.8 12 Este 29 Este 0 -- -- 50
2020-09-06 09:00:00 18.2 12 Este 27 Este 0 -- -- 52
2020-09-06 08:00:00 17.5 13 Este 32 Este 0 -- -- 55
2020-09-06 07:00:00 18.6 8 Este 14 Este 0 -- -- 39
2020-09-06 06:00:00 19.1 9 Este 19 Este 0 -- -- 38
2020-09-06 05:00:00 18.5 9 Este 22 Este 0 -- -- 41
2020-09-06 04:00:00 19.2 5 Este 11 Nordeste 0 -- -- 43
2020-09-06 03:00:00 19.1 7 Este 11 Este 0 -- -- 39
2020-09-06 02:00:00 18.8 3 Nordeste 5 Norte 0 -- -- 41
2020-09-06 01:00:00 19 3 Nordeste 5 Este 0 -- -- 43
2020-09-06 00:00:00 19.1 4 Este 7 Este 0 -- -- 49
2020-09-05 23:00:00 19.5 4 Este 8 Este 0 -- -- 47
2020-09-05 22:00:00 20.4 4 Este 5 Este 0 -- -- 43
2020-09-05 21:00:00 21.8 4 Este 8 Este 0 -- -- 42
2020-09-05 20:00:00 24 4 Este 13 Nordeste 0 -- -- 37
2020-09-05 19:00:00 25.7 7 Este 17 Sudeste 0 -- -- 33
2020-09-05 18:00:00 27.3 5 Sudeste 16 Nordeste 0 -- -- 30
2020-09-05 17:00:00 28 5 Este 22 Sudeste 0 -- -- 28
2020-09-05 16:00:00 27.8 8 Este 21 Este 0 -- -- 27
2020-09-05 15:00:00 28 6 Este 18 Este 0 -- -- 27
2020-09-05 14:00:00 27 8 Este 18 Este 0 -- -- 31
2020-09-05 13:00:00 26.6 8 Este 17 Este 0 -- -- 33
2020-09-05 12:00:00 27.2 3 Oeste 12 Nordeste 0 -- -- 30
2020-09-05 11:00:00 25 2 Nordeste 7 Este 0 -- -- 29
2020-09-05 10:00:00 21.1 4 Este 10 Este 0 -- -- 41
2020-09-05 09:00:00 18.5 6 Este 13 Nordeste 0 -- -- 45
2020-09-05 08:00:00 17.9 7 Este 15 Este 0 -- -- 41
2020-09-05 07:00:00 18.1 8 Este 17 Este 0 -- -- 38
2020-09-05 06:00:00 18.3 7 Este 14 Este 0 -- -- 39
2020-09-05 05:00:00 17.7 4 Este 9 Nordeste 0 -- -- 40
2020-09-05 04:00:00 17.9 3 Norte 9 Nordeste 0 -- -- 44
2020-09-05 03:00:00 18.8 5 Nordeste 10 Nordeste 0 -- -- 38
2020-09-05 02:00:00 19.8 7 Nordeste 14 Este 0 -- -- 37
2020-09-05 01:00:00 19.9 8 Este 15 Nordeste 0 -- -- 39
2020-09-05 00:00:00 20 7 Este 16 Nordeste 0 -- -- 39
2020-09-04 23:00:00 19.8 7 Este 12 Este 0 -- -- 41
2020-09-04 22:00:00 20.4 6 Este 9 Nordeste 0 -- -- 41
2020-09-04 21:00:00 21.7 4 Nordeste 12 Este 0 -- -- 38
2020-09-04 20:00:00 23.7 4 Este 13 Este 0 -- -- 37
2020-09-04 19:00:00 25.5 5 Este 15 Sur 0 -- -- 33
2020-09-04 18:00:00 27 6 Este 23 Este 0 -- -- 30
2020-09-04 17:00:00 27 9 Este 22 Este 0 -- -- 29
2020-09-04 16:00:00 26.9 8 Este 26 Este 0 -- -- 33
2020-09-04 15:00:00 26.7 11 Este 25 Este 0 -- -- 34
2020-09-04 14:00:00 26 8 Este 21 Este 0 -- -- 34
2020-09-04 13:00:00 25.5 10 Este 22 Este 0 -- -- 36
2020-09-04 12:00:00 24.4 10 Este 19 Este 0 -- -- 33
2020-09-04 11:00:00 21.6 10 Este 24 Este 0 -- -- 42
2020-09-04 10:00:00 19.4 11 Este 25 Este 0 -- -- 45
2020-09-04 09:00:00 18 13 Este 26 Este 0 -- -- 42
2020-09-04 08:00:00 17.3 11 Este 24 Este 0 -- -- 42
2020-09-04 07:00:00 17.8 12 Este 24 Este 0 -- -- 39
2020-09-04 06:00:00 18.3 10 Este 22 Este 0 -- -- 41
2020-09-04 05:00:00 18.5 12 Este 23 Nordeste 0 -- -- 39
2020-09-04 04:00:00 19.2 10 Este 23 Este 0 -- -- 35
2020-09-04 03:00:00 18.2 7 Este 15 Este 0 -- -- 36
2020-09-04 02:00:00 18 8 Este 15 Este 0 -- -- 40
2020-09-04 01:00:00 17.7 4 Este 10 Este 0 -- -- 43
2020-09-04 00:00:00 18.7 4 Nordeste 6 Nordeste 0 -- -- 41
2020-09-03 23:00:00 19.2 5 Este 12 Este 0 -- -- 40
2020-09-03 22:00:00 19.7 5 Este 12 Este 0 -- -- 38
2020-09-03 21:00:00 21.1 6 Este 12 Este 0 -- -- 35
2020-09-03 20:00:00 23.6 0 Calma 10 Sudoeste 0 -- -- 34
2020-09-03 19:00:00 26 5 Sudoeste 12 Oeste 0 -- -- 27
2020-09-03 18:00:00 27 5 Sudeste 14 Sudoeste 0 -- -- 26
2020-09-03 17:00:00 27.7 6 Sudoeste 17 Este 0 -- -- 24
2020-09-03 16:00:00 27 4 Nordeste 18 Este 0 -- -- 26
2020-09-03 15:00:00 26.1 9 Este 22 Nordeste 0 -- -- 27
2020-09-03 14:00:00 25.1 11 Este 22 Este 0 -- -- 29
2020-09-03 13:00:00 24.5 9 Este 22 Este 0 -- -- 30
2020-09-03 12:00:00 23.2 12 Este 23 Este 0 -- -- 30
2020-09-03 11:00:00 21.5 11 Este 23 Este 0 -- -- 33
2020-09-03 10:00:00 19.4 9 Este 18 Este 0 -- -- 38
2020-09-03 09:00:00 17 7 Este 20 Nordeste 0 -- -- 42
2020-09-03 08:00:00 16.2 7 Este 14 Este 0 -- -- 40
2020-09-03 07:00:00 16.5 7 Este 18 Este 0 -- -- 40
2020-09-03 06:00:00 17.1 8 Este 16 Este 0 -- -- 38
2020-09-03 05:00:00 17.4 9 Este 15 Este 0 -- -- 37
2020-09-03 04:00:00 17.3 8 Este 15 Este 0 -- -- 38
2020-09-03 03:00:00 16.7 7 Este 12 Este 0 -- -- 39
2020-09-03 02:00:00 16.4 6 Este 10 Este 0 -- -- 37
2020-09-03 01:00:00 16.5 2 Este 5 Norte 0 -- -- 36
2020-09-03 00:00:00 17.1 3 Nordeste 11 Nordeste 0 -- -- 35
2020-09-02 23:00:00 17.7 6 Norte 13 Nordeste 0 -- -- 33
2020-09-02 22:00:00 17.9 3 Noroeste 8 Oeste 0 -- -- 35
2020-09-02 21:00:00 19.7 0 Calma 8 Sudoeste 0 -- -- 34
2020-09-02 20:00:00 22.6 3 Sudoeste 12 Oeste 0 -- -- 31
2020-09-02 19:00:00 24.9 4 Oeste 17 Oeste 0 -- -- 25
2020-09-02 18:00:00 26.2 6 Sudoeste 18 Sudoeste 0 -- -- 23
2020-09-02 17:00:00 26.7 7 Oeste 27 Nordeste 0 -- -- 23
2020-09-02 16:00:00 24.5 9 Nordeste 22 Sudeste 0 -- -- 27
2020-09-02 15:00:00 23.9 10 Este 26 Este 0 -- -- 27
2020-09-02 14:00:00 23.1 13 Este 28 Este 0 -- -- 27
2020-09-02 13:00:00 22.2 12 Este 27 Este 0 -- -- 31
2020-09-02 12:00:00 21.2 13 Este 27 Nordeste 0 -- -- 30
2020-09-02 11:00:00 19.6 12 Este 24 Este 0 -- -- 33
2020-09-02 10:00:00 17.9 12 Este 24 Nordeste 0 -- -- 35
2020-09-02 09:00:00 15.3 9 Este 20 Este 0 -- -- 39
2020-09-02 08:00:00 14.5 10 Este 22 Este 0 -- -- 38
2020-09-02 07:00:00 14.8 8 Nordeste 18 Este 0 -- -- 35
2020-09-02 06:00:00 14.4 10 Este 24 Nordeste 0 -- -- 37
2020-09-02 05:00:00 13.5 8 Este 25 Este 0 -- -- 40
2020-09-02 04:00:00 14.5 4 Este 7 Este 0 -- -- 37
2020-09-02 03:00:00 16.1 5 Nordeste 13 Norte 0 -- -- 33
2020-09-02 02:00:00 16.3 7 Nordeste 13 Nordeste 0 -- -- 33
2020-09-02 01:00:00 16.8 6 Nordeste 20 Norte 0 -- -- 32
2020-09-02 00:00:00 16.5 7 Norte 18 Norte 0 -- -- 34
2020-09-01 23:00:00 15.8 4 Norte 11 Noroeste 0 -- -- 36
2020-09-01 22:00:00 16.7 3 Noroeste 9 Noroeste 0 -- -- 34
2020-09-01 21:00:00 18.8 3 Sur 11 Sudoeste 0 -- -- 31
2020-09-01 20:00:00 21.9 5 Sudoeste 16 Sudoeste 0 -- -- 24
2020-09-01 19:00:00 23.4 5 Noroeste 18 Noroeste 0 -- -- 23
2020-09-01 18:00:00 25.9 10 Oeste 18 Oeste 0 -- -- 18
2020-09-01 17:00:00 26.2 10 Oeste 23 Oeste 0 -- -- 18
2020-09-01 16:00:00 24.6 8 Sudoeste 21 Oeste 0 -- -- 21
2020-09-01 15:00:00 23.3 4 Sur 19 Sudeste 0 -- -- 24
2020-09-01 14:00:00 22 4 Sur 15 Sudoeste 0 -- -- 26
2020-09-01 13:00:00 21.4 4 Sur 14 Sudeste 0 -- -- 30
2020-09-01 12:00:00 20.4 2 Sur 11 Este 0 -- -- 35
2020-09-01 11:00:00 20.6 4 Oeste 9 Noroeste 0 -- -- 30
2020-09-01 10:00:00 15.4 2 Sudeste 4 Sudeste 0 -- -- 53
2020-09-01 09:00:00 14.2 0 Calma 9 Este 0 -- -- 45
2020-09-01 08:00:00 14 4 Este 8 Este 0 -- -- 39
2020-09-01 07:00:00 14.4 3 Este 11 Este 0 -- -- 38
2020-09-01 06:00:00 14.7 2 Sudoeste 9 Sudoeste 0 -- -- 36
2020-09-01 05:00:00 14.5 4 Sur 10 Sudoeste 0 -- -- 35
2020-09-01 04:00:00 14.4 5 Este 11 Este 0 -- -- 37
2020-09-01 03:00:00 14.9 3 Este 13 Este 0 -- -- 35
2020-09-01 02:00:00 14.5 6 Este 13 Nordeste 0 -- -- 37
2020-09-01 01:00:00 14.4 5 Nordeste 10 Norte 0 -- -- 38
2020-09-01 00:00:00 13.7 5 Norte 10 Noroeste 0 -- -- 40
2020-08-31 23:00:00 13.2 2 Nordeste 6 Noroeste 0 -- -- 40
2020-08-31 22:00:00 14.2 4 Oeste 6 Oeste 0 -- -- 35
2020-08-31 21:00:00 16.3 3 Sudoeste 10 Sudoeste 0 -- -- 33
2020-08-31 20:00:00 19.3 2 Noroeste 12 Oeste 0 -- -- 29
2020-08-31 19:00:00 21 4 Oeste 16 Oeste 0 -- -- 25
2020-08-31 18:00:00 22.2 5 Oeste 21 Oeste 0 -- -- 24
2020-08-31 17:00:00 22.4 6 Noroeste 17 Sudeste 0 -- -- 27
2020-08-31 16:00:00 20.4 3 Nordeste 15 Sur 0 -- -- 30
2020-08-31 15:00:00 20.7 5 Oeste 18 Este 0 -- -- 29
2020-08-31 14:00:00 17.5 7 Este 20 Nordeste 0 -- -- 38
2020-08-31 13:00:00 17.2 10 Este 26 Este 0 -- -- 37
2020-08-31 12:00:00 16.1 13 Este 28 Este 0 -- -- 42
2020-08-31 11:00:00 14.9 12 Este 32 Este 0 -- -- 44
2020-08-31 10:00:00 12.7 12 Este 30 Este 0 -- -- 48
2020-08-31 09:00:00 10.8 13 Este 30 Nordeste 0 -- -- 54
2020-08-31 08:00:00 9.7 11 Este 32 Este 0 -- -- 55
2020-08-31 07:00:00 10.1 14 Este 30 Este 0 -- -- 51
2020-08-31 06:00:00 10 13 Este 31 Este 0 -- -- 53
2020-08-31 05:00:00 10 14 Este 26 Este 0 -- -- 50
2020-08-31 04:00:00 10.1 9 Este 20 Este 0 -- -- 52
2020-08-31 03:00:00 10.3 10 Este 19 Este 0 -- -- 51
2020-08-31 02:00:00 10.4 6 Este 13 Este 0 -- -- 53
2020-08-31 01:00:00 10.9 6 Este 13 Este 0 -- -- 50
2020-08-31 00:00:00 11.3 6 Este 13 Este 0 -- -- 48
2020-08-30 23:00:00 11.8 2 Norte 8 Noroeste 0 -- -- 45
2020-08-30 22:00:00 12.7 4 Norte 9 Nordeste 0 -- -- 42
2020-08-30 21:00:00 14.3 5 Norte 18 Noroeste 0 -- -- 40
2020-08-30 20:00:00 16.9 8 Norte 26 Noroeste 0 -- -- 33
2020-08-30 19:00:00 18.9 12 Noroeste 27 Norte 0 -- -- 27
2020-08-30 18:00:00 20.6 9 Noroeste 22 Noroeste 0 -- -- 29
2020-08-30 17:00:00 21.2 8 Oeste 20 Oeste 0 -- -- 27
2020-08-30 16:00:00 20.7 8 Oeste 24 Oeste 0 -- -- 31
2020-08-30 15:00:00 17.1 8 Sudoeste 18 Sudoeste 0 -- -- 42
2020-08-30 14:00:00 16.9 4 Oeste 17 Nordeste 0 -- -- 45
2020-08-30 13:00:00 16.5 3 Oeste 17 Nordeste 0 -- -- 46
2020-08-30 12:00:00 15.1 8 Nordeste 19 Nordeste 0 -- -- 52
2020-08-30 11:00:00 13.4 8 Nordeste 19 Nordeste 0 -- -- 56
2020-08-30 10:00:00 11.4 8 Este 17 Este 0 -- -- 66
2020-08-30 09:00:00 9.3 5 Este 17 Este 0 -- -- 70
2020-08-30 08:00:00 7.7 6 Este 18 Nordeste 0 -- -- 78
2020-08-30 07:00:00 8.1 6 Este 13 Este 0 -- -- 76
2020-08-30 06:00:00 8.1 4 Este 10 Este 0 -- -- 74
2020-08-30 05:00:00 8.6 2 Este 9 Este 0 -- -- 69
2020-08-30 04:00:00 9.1 0 Calma 4 Oeste 0 -- -- 62
2020-08-30 03:00:00 10.2 4 Norte 16 Norte 0 -- -- 59
2020-08-30 02:00:00 11.6 9 Norte 24 Nordeste 0 -- -- 56
2020-08-30 01:00:00 11.5 12 Norte 39 Norte 0 -- -- 60
2020-08-30 00:00:00 12.2 19 Norte 45 Norte 0 -- -- 57
2020-08-29 23:00:00 13 17 Norte 40 Norte 0 -- -- 52
2020-08-29 22:00:00 13.4 12 Noroeste 24 Noroeste 0 -- -- 47
2020-08-29 21:00:00 14.6 9 Noroeste 25 Noroeste 0 -- -- 44
2020-08-29 20:00:00 15.6 14 Noroeste 35 Noroeste 0 -- -- 43
2020-08-29 19:00:00 17.6 13 Noroeste 37 Noroeste 0 -- -- 36
2020-08-29 18:00:00 19.2 12 Norte 33 Noroeste 0 -- -- 34
2020-08-29 17:00:00 20.6 15 Noroeste 32 Noroeste 0 -- -- 31
2020-08-29 16:00:00 20 14 Noroeste 34 Noroeste 0 -- -- 30
2020-08-29 15:00:00 18.6 10 Norte 30 Norte 0 -- -- 37
2020-08-29 14:00:00 17.2 15 Norte 37 Norte 0 -- -- 39
2020-08-29 13:00:00 16.4 15 Norte 42 Norte 0 -- -- 42
2020-08-29 12:00:00 14.6 17 Norte 41 Norte 0 -- -- 47
2020-08-29 11:00:00 14 9 Norte 35 Norte 0 -- -- 49
2020-08-29 10:00:00 12.1 11 Norte 34 Nordeste 0 -- -- 50
2020-08-29 09:00:00 9.7 11 Norte 30 Norte 0 -- -- 62
2020-08-29 08:00:00 9.4 12 Norte 39 Norte 0 -- -- 61
2020-08-29 07:00:00 9.8 15 Norte 34 Norte 0 -- -- 62
2020-08-29 06:00:00 10.2 14 Norte 33 Norte 0 -- -- 53
2020-08-29 05:00:00 9.5 8 Norte 40 Noroeste 0 -- -- 61
2020-08-29 04:00:00 10.4 12 Norte 49 Norte 0 -- -- 58
2020-08-29 03:00:00 11.2 21 Norte 57 Norte 0 -- -- 59
2020-08-29 02:00:00 12.1 26 Noroeste 52 Noroeste 0 -- -- 57
2020-08-29 01:00:00 13.1 22 Norte 45 Noroeste 0 -- -- 55
2020-08-29 00:00:00 14.3 22 Norte 54 Noroeste 0 -- -- 49
2020-08-28 23:00:00 15.4 19 Norte 43 Norte 0 -- -- 47
2020-08-28 22:00:00 17.3 20 Noroeste 46 Noroeste 0 -- -- 40
2020-08-28 21:00:00 18.8 21 Noroeste 38 Noroeste 0 -- -- 34
2020-08-28 20:00:00 21.4 18 Noroeste 36 Noroeste 0 -- -- 28
2020-08-28 19:00:00 23.3 14 Oeste 41 Oeste 0 -- -- 27
2020-08-28 18:00:00 25.5 18 Oeste 39 Noroeste 0 -- -- 21
2020-08-28 17:00:00 26.4 17 Oeste 37 Oeste 0 -- -- 24
2020-08-28 16:00:00 27.2 17 Oeste 36 Oeste 0 -- -- 26
2020-08-28 15:00:00 27.7 15 Noroeste 32 Noroeste 0 -- -- 21
2020-08-28 14:00:00 27.8 15 Noroeste 29 Oeste 0 -- -- 24
2020-08-28 13:00:00 26.4 10 Noroeste 25 Noroeste 0 -- -- 34
2020-08-28 12:00:00 24.2 16 Noroeste 28 Noroeste 0 -- -- 44
2020-08-28 11:00:00 22.8 15 Noroeste 30 Noroeste 0 -- -- 43
2020-08-28 10:00:00 20.9 8 Noroeste 19 Noroeste 0 -- -- 45
2020-08-28 09:00:00 19 8 Noroeste 21 Noroeste 0 -- -- 52
2020-08-28 08:00:00 17.4 10 Norte 26 Norte 0 -- -- 61
2020-08-28 07:00:00 17.6 5 Norte 13 Nordeste 0 -- -- 60
2020-08-28 06:00:00 18.4 4 Norte 15 Norte 0 -- -- 57
2020-08-28 05:00:00 19.3 5 Norte 16 Norte 0 -- -- 55
2020-08-28 04:00:00 19.5 7 Norte 18 Norte 0 -- -- 57
2020-08-28 03:00:00 19.8 5 Norte 19 Norte 0 -- -- 59
2020-08-28 02:00:00 20.8 8 Norte 34 Nordeste 0 -- -- 54
2020-08-28 01:00:00 21.4 13 Noroeste 33 Noroeste 0 -- -- 52
2020-08-28 00:00:00 22 13 Norte 29 Noroeste 0 -- -- 41
2020-08-27 23:00:00 22.8 13 Norte 29 Noroeste 0 -- -- 38
2020-08-27 22:00:00 23.6 14 Noroeste 29 Noroeste 0 -- -- 35
2020-08-27 21:00:00 25.5 13 Noroeste 24 Oeste 0 -- -- 33
2020-08-27 20:00:00 27.7 10 Sudoeste 21 Sudoeste 0 -- -- 34
2020-08-27 19:00:00 29.4 10 Sudoeste 23 Sudoeste 0 -- -- 32
2020-08-27 18:00:00 31.4 10 Sudoeste 27 Sudoeste 0 -- -- 30
2020-08-27 17:00:00 32.5 9 Sudoeste 21 Oeste 0 -- -- 25
2020-08-27 16:00:00 32.4 8 Oeste 21 Sudoeste 0 -- -- 25
2020-08-27 15:00:00 30.7 4 Sur 17 Sudoeste 0 -- -- 29
2020-08-27 14:00:00 30.4 5 Sudeste 15 Sudoeste 0 -- -- 29
2020-08-27 13:00:00 30.9 7 Oeste 14 Sudoeste 0 -- -- 29
2020-08-27 12:00:00 29.7 4 Oeste 12 Sudoeste 0 -- -- 28
2020-08-27 11:00:00 27.3 3 Este 6 Este 0 -- -- 35
2020-08-27 10:00:00 23.3 2 Nordeste 4 Nordeste 0 -- -- 43
2020-08-27 09:00:00 20.3 3 Norte 5 Norte 0 -- -- 50
2020-08-27 08:00:00 19.4 0 Calma 3 Oeste 0 -- -- 41
2020-08-27 07:00:00 19.7 0 Calma 5 Oeste 0 -- -- 39
2020-08-27 06:00:00 20.1 0 Calma 3 Nordeste 0 -- -- 38
2020-08-27 05:00:00 20.3 0 Calma 5 Noroeste 0 -- -- 37
2020-08-27 04:00:00 20.9 3 Norte 8 Norte 0 -- -- 37
2020-08-27 03:00:00 21.2 5 Norte 13 Norte 0 -- -- 37
2020-08-27 02:00:00 22.2 6 Norte 18 Norte 0 -- -- 35
2020-08-27 01:00:00 22 8 Norte 17 Norte 0 -- -- 35
2020-08-27 00:00:00 22.4 5 Noroeste 10 Noroeste 0 -- -- 28
2020-08-26 23:00:00 22.7 5 Oeste 12 Oeste 0 -- -- 28
2020-08-26 22:00:00 23.2 4 Oeste 12 Oeste 0 -- -- 23
2020-08-26 21:00:00 24.2 5 Sudoeste 12 Sudoeste 0 -- -- 22
2020-08-26 20:00:00 27.2 4 Sudoeste 14 Sudoeste 0 -- -- 24
2020-08-26 19:00:00 29.6 7 Sudoeste 21 Sudoeste 0 -- -- 21
2020-08-26 18:00:00 31.2 9 Sudoeste 20 Sudoeste 0 -- -- 20
2020-08-26 17:00:00 31.1 9 Sur 18 Sur 0 -- -- 18
2020-08-26 16:00:00 31.7 7 Oeste 18 Sudoeste 0 -- -- 17
2020-08-26 15:00:00 31.1 6 Sur 22 Sur 0 -- -- 19
2020-08-26 14:00:00 30.5 5 Sur 15 Sur 0 -- -- 21
2020-08-26 13:00:00 28.9 8 Sur 17 Sudeste 0 -- -- 25
2020-08-26 12:00:00 28.6 4 Sudeste 14 Este 0 -- -- 28
2020-08-26 11:00:00 26.5 4 Sur 10 Sur 0 -- -- 30
2020-08-26 10:00:00 22 0 Calma 5 Sudeste 0 -- -- 51
2020-08-26 09:00:00 18.9 3 Este 4 Este 0 -- -- 54
2020-08-26 08:00:00 18.1 3 Este 4 Este 0 -- -- 41
2020-08-26 07:00:00 18.3 2 Sudeste 4 Sudeste 0 -- -- 40
2020-08-26 06:00:00 18.6 3 Sudeste 5 Sudeste 0 -- -- 40
2020-08-26 05:00:00 19.1 3 Sudeste 5 Este 0 -- -- 41
2020-08-26 04:00:00 19.8 3 Este 4 Este 0 -- -- 39
2020-08-26 03:00:00 21 0 Calma 6 Nordeste 0 -- -- 35
2020-08-26 02:00:00 20.8 4 Norte 5 Norte 0 -- -- 34
2020-08-26 01:00:00 20.9 3 Noroeste 6 Oeste 0 -- -- 35
2020-08-26 00:00:00 21.9 3 Oeste 6 Sudoeste 0 -- -- 33
2020-08-25 23:00:00 22.9 4 Oeste 8 Oeste 0 -- -- 31
2020-08-25 22:00:00 23.9 5 Oeste 13 Sudoeste 0 -- -- 28
2020-08-25 21:00:00 25.4 5 Oeste 17 Sudoeste 0 -- -- 27
2020-08-25 20:00:00 27.6 8 Oeste 17 Oeste 0 -- -- 25
2020-08-25 19:00:00 29.3 6 Sudoeste 18 Oeste 0 -- -- 24
2020-08-25 18:00:00 31.3 5 Sudoeste 22 Oeste 0 -- -- 21
2020-08-25 17:00:00 31.8 7 Oeste 23 Oeste 0 -- -- 19
2020-08-25 16:00:00 31.9 8 Oeste 21 Sudoeste 0 -- -- 21
2020-08-25 15:00:00 30.3 9 Sudoeste 21 Sur 0 -- -- 22
2020-08-25 14:00:00 30.1 5 Sudeste 20 Sudoeste 0 -- -- 23
2020-08-25 13:00:00 29.4 5 Oeste 14 Sudoeste 0 -- -- 25
2020-08-25 12:00:00 27.3 6 Este 16 Este 0 -- -- 34
2020-08-25 11:00:00 25.9 5 Este 15 Este 0 -- -- 34
2020-08-25 10:00:00 22.5 4 Este 10 Este 0 -- -- 44
2020-08-25 09:00:00 19.5 4 Este 10 Nordeste 0 -- -- 46
2020-08-25 08:00:00 17.7 3 Sudeste 5 Sudeste 0 -- -- 40
2020-08-25 07:00:00 17.8 3 Sudeste 5 Este 0 -- -- 41
2020-08-25 06:00:00 18.1 3 Sudeste 5 Sudeste 0 -- -- 42
2020-08-25 05:00:00 17.9 3 Sudeste 5 Sudeste 0 -- -- 41
2020-08-25 04:00:00 18.3 2 Sudeste 4 Sudeste 0 -- -- 40
2020-08-25 03:00:00 19 3 Sudeste 4 Sudeste 0 -- -- 37
2020-08-25 02:00:00 20.2 0 Calma 6 Norte 0 -- -- 36
2020-08-25 01:00:00 20.4 3 Noroeste 5 Noroeste 0 -- -- 36
2020-08-25 00:00:00 20.6 2 Noroeste 4 Noroeste 0 -- -- 36
2020-08-24 23:00:00 20.4 2 Noroeste 7 Oeste 0 -- -- 37
2020-08-24 22:00:00 22.1 5 Oeste 9 Oeste 0 -- -- 32
2020-08-24 21:00:00 23.8 2 Sudoeste 9 Sudoeste 0 -- -- 34
2020-08-24 20:00:00 26.2 5 Sudoeste 14 Sudoeste 0 -- -- 28
2020-08-24 19:00:00 28 5 Sur 14 Sudoeste 0 -- -- 28
2020-08-24 18:00:00 29.7 6 Oeste 14 Oeste 0 -- -- 23
2020-08-24 17:00:00 29.9 5 Oeste 15 Nordeste 0 -- -- 25
2020-08-24 16:00:00 28.8 8 Este 21 Nordeste 0 -- -- 25
2020-08-24 15:00:00 28 8 Este 24 Nordeste 0 -- -- 26
2020-08-24 14:00:00 26.9 10 Este 21 Este 0 -- -- 28
2020-08-24 13:00:00 25.9 10 Este 24 Este 0 -- -- 31
2020-08-24 12:00:00 25.1 10 Este 20 Este 0 -- -- 31
2020-08-24 11:00:00 24.2 8 Este 18 Este -- -- -- 34
2020-08-24 10:00:00 22.4 9 Este 17 Este 0 -- -- 33
2020-08-24 09:00:00 18.9 9 Este 19 Este 0 -- -- 42
2020-08-24 08:00:00 16.6 6 Este 12 Este 0 -- -- 41
2020-08-24 07:00:00 16.8 0 Calma 18 Este 0 -- -- 40
2020-08-24 06:00:00 18.2 9 Este 19 Este 0 -- -- 36
2020-08-24 05:00:00 17.5 8 Este 14 Este 0 -- -- 40
2020-08-24 04:00:00 18.1 5 Este 10 Nordeste 0 -- -- 38
2020-08-24 03:00:00 18.6 4 Este 9 Este 0 -- -- 37
2020-08-24 02:00:00 18.8 4 Este 10 Nordeste 0 -- -- 37
2020-08-24 01:00:00 19.1 3 Norte 8 Norte 0 -- -- 35
2020-08-24 00:00:00 19.6 4 Norte 12 Norte 0 -- -- 35
2020-08-23 23:00:00 20.1 6 Norte 16 Nordeste 0 -- -- 33
2020-08-23 22:00:00 20.5 8 Norte 17 Norte 0 -- -- 33
2020-08-23 21:00:00 22.3 6 Norte 19 Norte 0 -- -- 32
2020-08-23 20:00:00 25.2 10 Noroeste 19 Noroeste 0 -- -- 27
2020-08-23 19:00:00 27.3 9 Noroeste 19 Noroeste 0 -- -- 25
2020-08-23 18:00:00 28.7 4 Noroeste 20 Oeste 0 -- -- 23
2020-08-23 17:00:00 29.5 7 Noroeste 19 Noroeste 0 -- -- 23
2020-08-23 16:00:00 28.3 4 Norte 18 Sudoeste 0 -- -- 25
2020-08-23 15:00:00 28.8 6 Noroeste 18 Oeste 0 -- -- 24
2020-08-23 14:00:00 28.4 7 Oeste 19 Oeste 0 -- -- 26
2020-08-23 13:00:00 25.9 5 Nordeste 14 Este 0 -- -- 26
2020-08-23 12:00:00 25.4 5 Este 12 Este 0 -- -- 29
2020-08-23 11:00:00 23.6 4 Norte 15 Este 0 -- -- 31
2020-08-23 10:00:00 20.6 9 Este 30 Este 0 -- -- 36
2020-08-23 09:00:00 17.8 11 Este 24 Este 0 -- -- 40
2020-08-23 08:00:00 16.4 13 Este 27 Este 0 -- -- 39
2020-08-23 07:00:00 16 7 Este 13 Nordeste 0 -- -- 43
2020-08-23 06:00:00 15.9 3 Nordeste 6 Este 0 -- -- 42
2020-08-23 05:00:00 16.8 3 Este 8 Este 0 -- -- 40
2020-08-23 04:00:00 16.8 0 Calma 6 Norte 0 -- -- 37
2020-08-23 03:00:00 17.5 3 Norte 10 Noroeste 0 -- -- 35
2020-08-23 02:00:00 17.7 4 Noroeste 14 Norte 0 -- -- 35
2020-08-23 01:00:00 18.1 5 Norte 18 Norte 0 -- -- 35
2020-08-23 00:00:00 19 9 Norte 25 Norte 0 -- -- 35